createdAt,value
2018-12-04T00:00:08.196Z,4.90
2018-12-04T00:02:35.086Z,4.83
2018-12-04T00:05:01.924Z,4.30
2018-12-04T00:07:28.830Z,2.20
2018-12-04T00:09:55.689Z,2.03
2018-12-04T00:12:22.520Z,3.57
2018-12-04T00:14:49.370Z,5.50
2018-12-04T00:17:16.205Z,2.70
2018-12-04T00:19:43.060Z,5.60
2018-12-04T00:22:09.897Z,4.80
2018-12-04T00:24:36.748Z,2.97
2018-12-04T00:27:03.665Z,3.07
2018-12-04T00:29:30.525Z,3.50
2018-12-04T00:31:57.368Z,4.23
2018-12-04T00:34:24.209Z,2.40
2018-12-04T00:36:51.069Z,6.53
2018-12-04T00:39:17.893Z,6.93
2018-12-04T00:41:44.830Z,5.73
2018-12-04T00:44:11.681Z,2.83
2018-12-04T00:46:38.596Z,5.07
2018-12-04T00:49:05.452Z,2.80
2018-12-04T00:51:32.972Z,2.47
2018-12-04T00:53:59.954Z,3.10
2018-12-04T00:56:26.794Z,4.40
2018-12-04T01:07:09.634Z,5.83
2018-12-04T01:09:36.561Z,3.63
2018-12-04T01:12:03.534Z,1.60
2018-12-04T01:14:30.414Z,3.57
2018-12-04T01:16:57.299Z,3.10
2018-12-04T01:19:24.187Z,4.67
2018-12-04T01:21:51.055Z,2.83
2018-12-04T01:24:17.938Z,6.37
2018-12-04T01:26:44.831Z,2.83
2018-12-04T01:29:11.738Z,4.23
2018-12-04T01:31:38.611Z,2.90
2018-12-04T01:34:05.493Z,3.07
2018-12-04T01:36:32.374Z,1.57
2018-12-04T01:38:59.298Z,2.03
2018-12-04T01:41:26.188Z,1.73
2018-12-04T01:43:53.054Z,2.87
2018-12-04T01:46:19.956Z,3.23
2018-12-04T01:48:46.823Z,2.97
2018-12-04T01:51:13.711Z,2.90
2018-12-04T01:53:40.585Z,2.90
2018-12-04T01:56:07.449Z,3.63
2018-12-04T01:58:34.336Z,6.97
2018-12-04T02:01:01.211Z,4.17
2018-12-04T02:03:28.111Z,3.80
2018-12-04T02:05:54.962Z,2.20
2018-12-04T02:08:21.822Z,4.43
2018-12-04T02:10:48.706Z,1.90
2018-12-04T02:13:15.578Z,1.50
2018-12-04T02:15:42.464Z,2.27
2018-12-04T02:18:09.339Z,2.73
2018-12-04T02:20:36.206Z,2.73
2018-12-04T02:23:03.138Z,2.30
2018-12-04T02:25:30.027Z,2.10
2018-12-04T02:27:56.886Z,3.03
2018-12-04T02:30:23.766Z,1.20
2018-12-04T02:32:50.631Z,2.23
2018-12-04T02:35:17.517Z,5.30
2018-12-04T02:37:44.406Z,2.23
2018-12-04T02:40:11.292Z,3.77
2018-12-04T02:42:38.140Z,3.40
2018-12-04T02:45:05.375Z,2.03
2018-12-04T02:47:32.292Z,3.40
2018-12-04T02:49:59.157Z,2.23
2018-12-04T02:52:25.984Z,1.77
2018-12-04T02:54:52.908Z,2.00
2018-12-04T02:57:19.754Z,1.60
2018-12-04T02:59:46.605Z,1.83
2018-12-04T03:02:13.575Z,4.07
2018-12-04T03:04:40.476Z,2.60
2018-12-04T03:07:07.326Z,2.03
2018-12-04T03:09:35.246Z,2.07
2018-12-04T03:12:02.098Z,3.13
2018-12-04T03:14:29.009Z,1.67
2018-12-04T03:16:55.906Z,4.43
2018-12-04T03:19:22.736Z,2.10
2018-12-04T03:21:49.625Z,3.23
2018-12-04T03:24:16.464Z,2.27
2018-12-04T03:26:43.318Z,1.60
2018-12-04T03:29:10.292Z,1.63
2018-12-04T03:31:37.148Z,1.63
2018-12-04T03:34:04.063Z,1.10
2018-12-04T03:36:30.989Z,1.60
2018-12-04T03:38:57.844Z,1.37
2018-12-04T03:41:24.677Z,1.50
2018-12-04T03:43:51.582Z,1.50
2018-12-04T03:46:18.413Z,1.50
2018-12-04T03:48:45.386Z,1.20
2018-12-04T03:51:12.221Z,1.37
2018-12-04T03:53:39.089Z,1.93
2018-12-04T03:56:05.933Z,1.23
2018-12-04T03:58:32.769Z,1.47
2018-12-04T04:00:59.684Z,1.73
2018-12-04T04:03:26.632Z,1.90
2018-12-04T04:05:53.494Z,2.30
2018-12-04T04:08:20.320Z,1.50
2018-12-04T04:10:47.178Z,1.63
2018-12-04T04:13:14.021Z,1.90
2018-12-04T04:15:40.916Z,2.00
2018-12-04T04:18:07.728Z,1.70
2018-12-04T04:20:34.741Z,1.57
2018-12-04T04:23:01.589Z,1.93
2018-12-04T04:25:28.448Z,2.00
2018-12-04T04:27:55.386Z,2.50
2018-12-04T04:30:22.251Z,2.97
2018-12-04T04:32:49.183Z,1.80
2018-12-04T04:35:16.069Z,2.30
2018-12-04T04:37:42.972Z,3.33
2018-12-04T04:40:09.857Z,2.93
2018-12-04T04:42:36.772Z,2.27
2018-12-04T04:45:04.106Z,2.83
2018-12-04T04:47:30.937Z,2.43
2018-12-04T04:49:57.814Z,1.87
2018-12-04T04:52:24.707Z,3.17
2018-12-04T04:54:51.621Z,2.33
2018-12-04T04:57:18.594Z,2.63
2018-12-04T04:59:45.441Z,2.20
2018-12-04T05:02:12.358Z,2.57
2018-12-04T05:04:39.203Z,2.20
2018-12-04T05:07:06.116Z,2.50
2018-12-04T05:09:32.988Z,2.63
2018-12-04T05:11:59.861Z,2.73
2018-12-04T05:14:26.727Z,2.10
2018-12-04T05:16:53.668Z,2.50
2018-12-04T05:19:20.613Z,2.73
2018-12-04T05:21:47.494Z,2.57
2018-12-04T05:24:14.352Z,2.40
2018-12-04T05:26:41.309Z,2.70
2018-12-04T05:29:08.249Z,2.27
2018-12-04T05:31:35.133Z,1.87
2018-12-04T05:34:02.135Z,3.40
2018-12-04T05:36:28.970Z,2.50
2018-12-04T05:38:55.817Z,1.90
2018-12-04T05:41:22.755Z,1.80
2018-12-04T05:43:49.694Z,2.87
2018-12-04T05:46:16.551Z,1.90
2018-12-04T05:48:43.377Z,1.90
2018-12-04T05:51:10.234Z,2.20
2018-12-04T05:53:37.125Z,2.43
2018-12-04T05:56:04.134Z,2.57
2018-12-04T05:58:30.978Z,2.97
2018-12-04T06:00:57.910Z,2.77
2018-12-04T06:03:24.873Z,3.00
2018-12-04T06:05:51.721Z,3.17
2018-12-04T06:08:18.587Z,2.90
2018-12-04T06:10:45.513Z,5.50
2018-12-04T06:13:12.424Z,2.40
2018-12-04T06:15:39.260Z,10.13
2018-12-04T06:18:06.101Z,2.70
2018-12-04T06:20:32.977Z,4.90
2018-12-04T06:22:59.805Z,3.27
2018-12-04T06:25:26.687Z,4.13
2018-12-04T06:27:53.546Z,3.10
2018-12-04T06:30:20.463Z,2.30
2018-12-04T06:32:47.296Z,2.60
2018-12-04T06:35:14.152Z,3.03
2018-12-04T06:37:40.989Z,2.77
2018-12-04T06:40:07.912Z,4.53
2018-12-04T06:42:34.837Z,3.97
2018-12-04T06:45:01.731Z,1.93
2018-12-04T06:47:28.668Z,5.00
2018-12-04T06:49:55.591Z,3.03
2018-12-04T06:52:22.433Z,2.47
2018-12-04T06:54:49.287Z,3.80
2018-12-04T06:57:16.507Z,3.97
2018-12-04T06:59:43.397Z,2.70
2018-12-04T07:02:10.342Z,3.60
2018-12-04T07:04:37.193Z,3.07
2018-12-04T07:07:04.128Z,3.30
2018-12-04T07:09:30.957Z,4.47
2018-12-04T07:12:02.449Z,3.40
2018-12-04T07:14:26.638Z,3.57
2018-12-04T07:16:53.494Z,4.40
2018-12-04T07:19:20.356Z,3.70
2018-12-04T07:21:47.200Z,3.53
2018-12-04T07:24:14.126Z,4.23
2018-12-04T07:26:40.965Z,3.70
2018-12-04T07:29:07.835Z,4.23
2018-12-04T07:31:34.765Z,4.00
2018-12-04T07:34:01.621Z,3.77
2018-12-04T07:36:28.475Z,4.10
2018-12-04T07:38:55.326Z,4.40
2018-12-04T07:41:22.177Z,3.93
2018-12-04T07:43:49.008Z,3.70
2018-12-04T07:46:15.899Z,4.50
2018-12-04T07:48:42.741Z,3.33
2018-12-04T07:51:09.623Z,3.00
2018-12-04T07:53:36.556Z,4.43
2018-12-04T07:56:03.477Z,4.40
2018-12-04T07:58:30.321Z,2.80
2018-12-04T08:00:57.189Z,2.40
2018-12-04T08:03:24.025Z,2.83
2018-12-04T08:05:50.921Z,2.13
2018-12-04T08:08:17.744Z,2.43
2018-12-04T08:10:44.656Z,1.90
2018-12-04T08:13:11.552Z,3.87
2018-12-04T08:15:38.380Z,3.53
2018-12-04T08:18:05.238Z,3.93
2018-12-04T08:20:32.064Z,4.27
2018-12-04T08:22:58.966Z,3.47
2018-12-04T08:25:25.799Z,3.10
2018-12-04T08:27:52.650Z,4.60
2018-12-04T08:30:19.544Z,5.40
2018-12-04T08:32:46.382Z,11.27
2018-12-04T08:35:13.247Z,14.47
2018-12-04T08:37:40.314Z,15.13
2018-12-04T08:40:07.245Z,8.73
2018-12-04T08:42:34.089Z,5.53
2018-12-04T08:45:00.928Z,4.90
2018-12-04T08:47:27.777Z,4.77
2018-12-04T08:49:54.637Z,2.70
2018-12-04T08:52:21.481Z,4.33
2018-12-04T08:54:48.323Z,2.63
2018-12-04T08:57:15.249Z,3.63
2018-12-04T08:59:42.108Z,3.50
2018-12-04T09:02:08.973Z,5.50
2018-12-04T09:04:35.848Z,5.90
2018-12-04T09:07:02.685Z,3.20
2018-12-04T09:09:29.516Z,5.10
2018-12-04T09:11:56.362Z,3.37
2018-12-04T09:14:23.208Z,4.60
2018-12-04T09:16:50.065Z,4.83
2018-12-04T09:19:16.974Z,3.47
2018-12-04T09:21:43.925Z,3.10
2018-12-04T09:24:10.831Z,4.00
2018-12-04T09:26:37.789Z,3.47
2018-12-04T09:29:04.727Z,3.00
2018-12-04T09:31:31.616Z,2.97
2018-12-04T09:33:58.505Z,4.03
2018-12-04T09:36:25.357Z,3.00
2018-12-04T09:38:52.212Z,2.80
2018-12-04T09:41:19.091Z,2.70
2018-12-04T09:43:45.955Z,3.40
2018-12-04T09:46:12.764Z,4.80
2018-12-04T09:48:39.621Z,4.70
2018-12-04T09:51:06.461Z,7.87
2018-12-04T09:53:33.284Z,4.67
2018-12-04T09:56:00.129Z,2.80
2018-12-04T09:58:27.026Z,3.03
2018-12-04T10:00:53.861Z,4.30
2018-12-04T10:03:20.724Z,3.47
2018-12-04T10:05:47.624Z,3.07
2018-12-04T10:08:14.457Z,3.17
2018-12-04T10:10:41.284Z,3.93
2018-12-04T10:13:08.140Z,6.70
2018-12-04T10:15:35.058Z,3.00
2018-12-04T10:18:02.017Z,2.80
2018-12-04T10:20:28.996Z,3.43
2018-12-04T10:22:55.902Z,4.73
2018-12-04T10:25:22.761Z,4.63
2018-12-04T10:27:49.622Z,6.17
2018-12-04T10:30:16.528Z,4.63
2018-12-04T10:32:43.480Z,3.23
2018-12-04T10:35:10.312Z,6.43
2018-12-04T10:37:37.153Z,3.87
2018-12-04T10:40:05.104Z,4.40
2018-12-04T10:42:31.947Z,6.37
2018-12-04T10:44:58.880Z,3.53
2018-12-04T10:47:25.725Z,5.30
2018-12-04T10:49:52.576Z,3.60
2018-12-04T10:52:19.413Z,3.23
2018-12-04T10:54:46.267Z,3.60
2018-12-04T10:57:13.145Z,6.80
2018-12-04T10:59:39.993Z,5.50
2018-12-04T11:02:06.916Z,3.03
2018-12-04T11:04:33.766Z,2.70
2018-12-04T11:07:00.617Z,3.67
2018-12-04T11:09:27.473Z,5.70
2018-12-04T11:11:54.305Z,3.07
2018-12-04T11:14:21.194Z,3.63
2018-12-04T11:16:48.030Z,4.50
2018-12-04T11:19:14.869Z,3.93
2018-12-04T11:21:41.757Z,3.53
2018-12-04T11:24:08.588Z,5.37
2018-12-04T11:26:35.664Z,5.60
2018-12-04T11:29:02.530Z,6.00
2018-12-04T11:31:29.467Z,5.80
2018-12-04T11:33:56.312Z,3.70
2018-12-04T11:36:23.169Z,3.93
2018-12-04T11:38:50.023Z,3.83
2018-12-04T11:41:16.946Z,4.23
2018-12-04T11:43:43.800Z,3.27
2018-12-04T11:46:10.629Z,5.23
2018-12-04T11:48:37.472Z,5.60
2018-12-04T11:51:04.387Z,7.90
2018-12-04T11:53:31.249Z,3.80
2018-12-04T11:55:58.091Z,2.20
2018-12-04T11:58:24.953Z,10.03
2018-12-04T12:00:51.793Z,2.37
2018-12-04T12:03:18.636Z,4.20
2018-12-04T12:05:45.608Z,5.10
2018-12-04T12:08:12.445Z,6.83
2018-12-04T12:10:39.294Z,6.40
2018-12-04T12:13:06.130Z,9.07
2018-12-04T12:15:32.996Z,8.27
2018-12-04T12:17:59.865Z,7.20
2018-12-04T12:20:26.692Z,7.40
2018-12-04T12:22:53.553Z,4.40
2018-12-04T12:25:20.429Z,5.97
2018-12-04T12:27:47.282Z,3.97
2018-12-04T12:30:14.154Z,5.80
2018-12-04T12:32:41.006Z,7.90
2018-12-04T12:35:07.918Z,8.20
2018-12-04T12:37:34.847Z,4.83
2018-12-04T12:40:01.990Z,4.90
2018-12-04T12:42:28.855Z,6.07
2018-12-04T12:44:55.732Z,6.87
2018-12-04T12:47:22.591Z,6.30
2018-12-04T12:49:49.477Z,11.23
2018-12-04T12:52:16.343Z,6.90
2018-12-04T12:54:44.384Z,3.93
2018-12-04T12:57:11.476Z,8.30
2018-12-04T12:59:38.314Z,8.17
2018-12-04T13:02:05.223Z,7.10
2018-12-04T13:04:32.092Z,5.30
2018-12-04T13:06:59.057Z,8.30
2018-12-04T13:09:25.900Z,4.87
2018-12-04T13:11:52.889Z,4.13
2018-12-04T13:14:19.749Z,5.63
2018-12-04T13:16:46.602Z,3.20
2018-12-04T13:19:14.339Z,5.03
2018-12-04T13:21:41.282Z,4.70
2018-12-04T13:24:08.247Z,4.30
2018-12-04T13:26:35.171Z,6.00
2018-12-04T13:29:02.203Z,4.17
2018-12-04T13:31:29.119Z,2.87
2018-12-04T13:33:55.961Z,5.13
2018-12-04T13:36:22.788Z,3.73
2018-12-04T13:38:49.719Z,5.13
2018-12-04T13:41:16.550Z,3.13
2018-12-04T13:43:43.500Z,3.53
2018-12-04T13:46:10.440Z,4.30
2018-12-04T13:48:37.369Z,6.97
2018-12-04T13:51:04.221Z,3.03
2018-12-04T13:53:31.150Z,3.57
2018-12-04T13:55:58.102Z,4.50
2018-12-04T13:58:25.033Z,2.63
2018-12-04T14:00:51.990Z,5.47
2018-12-04T14:03:18.832Z,2.73
2018-12-04T14:05:45.803Z,6.63
2018-12-04T14:08:12.658Z,4.40
2018-12-04T14:10:39.703Z,4.43
2018-12-04T14:13:06.639Z,4.33
2018-12-04T14:15:33.695Z,4.10
2018-12-04T14:18:00.620Z,3.70
2018-12-04T14:20:27.587Z,3.93
2018-12-04T14:22:54.481Z,5.13
2018-12-04T14:25:21.435Z,4.13
2018-12-04T14:27:49.161Z,3.53
2018-12-04T14:30:16.243Z,4.30
2018-12-04T14:32:43.184Z,6.30
2018-12-04T14:35:10.125Z,5.63
2018-12-04T14:37:37.028Z,5.70
2018-12-04T14:40:04.442Z,5.50
2018-12-04T14:42:31.403Z,5.57
2018-12-04T14:44:58.313Z,7.47
2018-12-04T14:47:25.211Z,5.83
2018-12-04T14:49:52.144Z,4.00
2018-12-04T14:52:19.143Z,5.50
2018-12-04T14:54:46.078Z,3.50
2018-12-04T14:57:12.952Z,4.33
2018-12-04T14:59:39.842Z,7.33
2018-12-04T15:02:06.750Z,6.30
2018-12-04T15:04:33.714Z,3.23
2018-12-04T15:07:00.613Z,5.10
2018-12-04T15:09:27.572Z,6.63
2018-12-04T15:11:54.469Z,10.43
2018-12-04T15:14:21.340Z,6.70
2018-12-04T15:16:54.851Z,7.70
2018-12-04T15:19:17.053Z,5.07
2018-12-04T15:21:43.981Z,6.23
2018-12-04T15:24:10.932Z,3.97
2018-12-04T15:26:38.569Z,6.37
2018-12-04T15:29:05.541Z,5.40
2018-12-04T15:31:32.472Z,7.90
2018-12-04T15:33:59.452Z,5.17
2018-12-04T15:36:26.448Z,6.00
2018-12-04T15:38:53.396Z,10.20
2018-12-04T15:41:20.311Z,7.03
2018-12-04T15:43:47.228Z,7.10
2018-12-04T15:46:14.179Z,8.00
2018-12-04T15:48:40.993Z,5.50
2018-12-04T15:51:07.890Z,6.60
2018-12-04T15:53:34.808Z,7.17
2018-12-04T15:56:01.752Z,8.43
2018-12-04T15:58:28.705Z,7.20
2018-12-04T16:00:55.533Z,8.20
2018-12-04T16:03:22.364Z,6.63
2018-12-04T16:05:49.315Z,9.63
2018-12-04T16:08:16.240Z,6.03
2018-12-04T16:10:43.073Z,7.10
2018-12-04T16:13:09.917Z,8.63
2018-12-04T16:15:36.777Z,4.30
2018-12-04T16:18:03.661Z,9.50
2018-12-04T16:20:30.593Z,8.20
2018-12-04T16:22:57.440Z,10.27
2018-12-04T16:25:24.304Z,9.37
2018-12-04T16:27:51.168Z,6.43
2018-12-04T16:30:18.055Z,6.43
2018-12-04T16:32:44.992Z,4.60
2018-12-04T16:35:11.849Z,8.83
2018-12-04T16:37:38.722Z,9.87
2018-12-04T16:40:05.654Z,9.60
2018-12-04T16:42:32.475Z,11.13
2018-12-04T16:44:59.333Z,5.57
2018-12-04T16:47:26.172Z,5.67
2018-12-04T16:49:53.192Z,6.30
2018-12-04T16:52:20.072Z,6.07
2018-12-04T16:54:46.951Z,13.77
2018-12-04T16:57:13.825Z,7.13
2018-12-04T16:59:40.660Z,5.70
2018-12-04T17:02:07.521Z,7.07
2018-12-04T17:04:34.413Z,10.00
2018-12-04T17:07:01.245Z,9.70
2018-12-04T17:09:28.098Z,8.50
2018-12-04T17:11:54.957Z,12.47
2018-12-04T17:14:21.841Z,8.20
2018-12-04T17:16:48.681Z,7.40
2018-12-04T17:19:15.558Z,6.30
2018-12-04T17:21:42.413Z,9.77
2018-12-04T17:24:09.351Z,6.93
2018-12-04T17:26:36.214Z,8.70
2018-12-04T17:29:03.146Z,7.33
2018-12-04T17:31:29.989Z,5.13
2018-12-04T17:33:56.932Z,11.07
2018-12-04T17:36:23.853Z,7.90
2018-12-04T17:38:50.711Z,10.23
2018-12-04T17:41:17.573Z,6.40
2018-12-04T17:43:44.480Z,5.90
2018-12-04T17:46:11.363Z,6.70
2018-12-04T17:48:38.196Z,6.63
2018-12-04T17:51:05.184Z,9.87
2018-12-04T17:53:32.079Z,12.00
2018-12-04T17:55:58.909Z,6.50
2018-12-04T17:58:25.764Z,7.77
2018-12-04T18:00:52.633Z,18.07
2018-12-04T18:03:19.566Z,16.70
2018-12-04T18:05:46.423Z,14.10
2018-12-04T18:08:16.991Z,14.67
2018-12-04T18:10:43.921Z,12.60
2018-12-04T18:13:11.028Z,11.07
2018-12-04T18:15:37.864Z,10.40
2018-12-04T18:18:04.716Z,9.50
2018-12-04T18:20:31.654Z,6.97
2018-12-04T18:22:58.522Z,8.40
2018-12-04T18:25:25.384Z,10.87
2018-12-04T18:27:52.249Z,8.03
2018-12-04T18:30:19.145Z,7.57
2018-12-04T18:32:46.012Z,8.07
2018-12-04T18:35:12.914Z,13.90
2018-12-04T18:37:39.764Z,7.77
2018-12-04T18:40:06.708Z,7.67
2018-12-04T18:42:33.601Z,10.00
2018-12-04T18:45:00.435Z,7.20
2018-12-04T18:47:27.304Z,6.37
2018-12-04T18:49:54.272Z,10.00
2018-12-04T18:52:21.135Z,11.17
2018-12-04T18:54:47.980Z,7.47
2018-12-04T18:57:14.852Z,14.30
2018-12-04T18:59:41.728Z,6.93
2018-12-04T19:02:08.661Z,13.00
2018-12-04T19:04:35.503Z,8.43
2018-12-04T19:07:02.386Z,13.27
2018-12-04T19:09:29.265Z,11.20
2018-12-04T19:11:56.235Z,8.87
2018-12-04T19:14:23.157Z,15.73
2018-12-04T19:16:50.052Z,11.17
2018-12-04T19:19:16.901Z,9.23
2018-12-04T19:21:43.819Z,10.47
2018-12-04T19:24:10.702Z,9.10
2018-12-04T19:26:37.703Z,8.20
2018-12-04T19:29:04.622Z,8.47
2018-12-04T19:31:31.491Z,11.23
2018-12-04T19:33:58.436Z,8.10
2018-12-04T19:36:25.291Z,8.17
2018-12-04T19:38:52.145Z,11.23
2018-12-04T19:41:19.014Z,8.33
2018-12-04T19:43:45.872Z,7.63
2018-12-04T19:46:12.775Z,9.37
2018-12-04T19:48:39.621Z,9.17
2018-12-04T19:51:06.482Z,14.53
2018-12-04T19:53:33.345Z,11.00
2018-12-04T19:56:00.216Z,11.67
2018-12-04T19:58:27.899Z,7.93
2018-12-04T20:00:54.757Z,11.80
2018-12-04T20:03:21.649Z,8.10
2018-12-04T20:05:48.497Z,11.20
2018-12-04T20:08:15.520Z,8.50
2018-12-04T20:10:42.439Z,10.33
2018-12-04T20:13:09.395Z,13.60
2018-12-04T20:15:36.312Z,8.53
2018-12-04T20:18:03.195Z,11.87
2018-12-04T20:20:30.063Z,19.83
2018-12-04T20:22:56.928Z,16.47
2018-12-04T20:25:23.774Z,12.90
2018-12-04T20:27:50.644Z,19.33
2018-12-04T20:30:17.508Z,17.57
2018-12-04T20:32:44.384Z,7.43
2018-12-04T20:35:11.242Z,8.30
2018-12-04T20:37:38.103Z,8.80
2018-12-04T20:40:05.159Z,9.90
2018-12-04T20:42:32.067Z,16.43
2018-12-04T20:44:58.942Z,7.93
2018-12-04T20:47:25.777Z,7.30
2018-12-04T20:49:52.623Z,6.40
2018-12-04T20:52:19.500Z,7.57
2018-12-04T20:54:46.349Z,10.50
2018-12-04T20:57:13.268Z,11.10
2018-12-04T20:59:40.108Z,11.97
2018-12-04T21:02:06.975Z,10.03
2018-12-04T21:04:33.834Z,9.90
2018-12-04T21:07:00.724Z,9.10
2018-12-04T21:09:27.605Z,8.17
2018-12-04T21:11:54.479Z,8.90
2018-12-04T21:14:21.321Z,12.00
2018-12-04T21:16:48.177Z,11.03
2018-12-04T21:19:15.198Z,12.57
2018-12-04T21:21:42.044Z,8.03
2018-12-04T21:24:09.004Z,12.23
2018-12-04T21:26:36.998Z,9.60
2018-12-04T21:29:07.129Z,8.90
2018-12-04T21:31:34.157Z,9.80
2018-12-04T21:34:01.025Z,9.27
2018-12-04T21:36:27.891Z,7.63
2018-12-04T21:38:54.739Z,7.07
2018-12-04T21:41:21.598Z,10.83
2018-12-04T21:43:48.533Z,6.47
2018-12-04T21:46:16.123Z,13.83
2018-12-04T21:48:42.987Z,7.63
2018-12-04T21:51:09.827Z,8.00
2018-12-04T21:53:36.658Z,7.57
2018-12-04T21:56:05.483Z,12.70
2018-12-04T21:58:32.409Z,10.30
2018-12-04T22:00:59.380Z,8.03
2018-12-04T22:03:26.325Z,8.20
2018-12-04T22:05:53.182Z,6.50
2018-12-04T22:08:20.116Z,9.47
2018-12-04T22:10:46.967Z,5.50
2018-12-04T22:13:13.831Z,7.50
2018-12-04T22:15:40.713Z,7.73
2018-12-04T22:18:07.616Z,9.20
2018-12-04T22:20:34.485Z,7.43
2018-12-04T22:23:01.331Z,7.90
2018-12-04T22:25:28.213Z,7.43
2018-12-04T22:27:55.061Z,6.70
2018-12-04T22:30:21.917Z,10.43
2018-12-04T22:32:48.761Z,8.73
2018-12-04T22:35:15.648Z,8.30
2018-12-04T22:37:42.508Z,7.70
2018-12-04T22:40:09.444Z,6.63
2018-12-04T22:42:36.286Z,7.30
2018-12-04T22:45:04.263Z,7.17
2018-12-04T22:47:31.141Z,8.00
2018-12-04T22:49:58.100Z,10.73
2018-12-04T22:52:25.006Z,11.50
2018-12-04T22:54:51.957Z,11.87
2018-12-04T22:57:18.796Z,14.37
2018-12-04T22:59:45.658Z,9.73
2018-12-04T23:02:12.506Z,14.73
2018-12-04T23:04:39.392Z,10.97
2018-12-04T23:07:06.236Z,13.43
2018-12-04T23:09:33.121Z,9.53
2018-12-04T23:12:00.057Z,9.33
2018-12-04T23:14:26.904Z,8.73
2018-12-04T23:16:54.512Z,13.33
2018-12-04T23:19:21.389Z,9.07
2018-12-04T23:21:48.245Z,8.57
2018-12-04T23:24:15.121Z,10.20
2018-12-04T23:26:41.976Z,8.63
2018-12-04T23:29:08.825Z,7.00
2018-12-04T23:31:35.749Z,9.37
2018-12-04T23:34:02.868Z,5.47
2018-12-04T23:36:29.708Z,7.10
2018-12-04T23:38:56.565Z,9.13
2018-12-04T23:41:23.395Z,5.73
2018-12-04T23:43:50.496Z,8.43
2018-12-04T23:46:17.424Z,10.93
2018-12-04T23:48:44.268Z,7.60
2018-12-04T23:51:11.131Z,8.00
2018-12-04T23:53:37.989Z,6.63
2018-12-04T23:56:04.871Z,8.60
2018-12-04T23:58:31.704Z,6.30
